LKTC weather

Točná Airfield
Tocna, Prague (capital city), Czechia

Public forecast

Using degrees Celsius for public forecast. Weather courtesy of forecast.io.

METAR (pilot weather report)

Closest report is Kbely Air Base, 9.3 nm (17.3 km) NNE. Retrieved 2019/05/22 14:31 UTC (0 seconds ago):

LKKB 221431Z 31005KT 240V010 7000 -SHRA SCT015 OVC026 12/10 Q1013 RMK BLU

TAF (pilot weather forecast)

Closest forecast is Kbely Air Base, 9.3 nm (17.3 km) NNE. Retrieved 2019/05/22 12:00 UTC (2 hours ago):

TAF LKKB 221100Z 2212/2312 29012KT 9999 OVC025 TEMPO 2212/2218 29016KT 8000 RA BKN015 OVC020 BECMG 2218/2220 5000 RA BKN015 OVC020 BECMG 2300/2302 7000 NSW SCT020 BECMG 2306/2308 CAVOK